Buena Vista, CO

8:00 AM MDT on October 23, 2014 (GMT -0600)
Maysville, East Slope Monarch Pass | Change Station
CLOSE
Current Station
Personal Weather Station
Location: Salida, CO
Elevation: 8397 ft
Nearby Weather Stations

Elev 8397 ft 38.54 °N, 106.19 °W | Updated 3 seconds ago

Clear
Clear
41.3 °F
Feels Like 41 °F
N
1.0
Wind Variable Wind from WSW
Gusts 1.0 mph

Today
High -- | Low -- °F
--% Chance of Precip.
Yesterday
High -- | Low -- °F
Precip. -- in
7:22 AM 6:15 PM
Waning Crescent, 0% visible
Pressure 30.35 in
Visibility 10.0 miles
Clouds Clear
Windchill 41 °F
Dew Point 25 °F
Humidity 52%
Rainfall 0.00 in
Snow Depth 0 in
UV 0 out of 12
Pollen 2.50 out of 12
Air Quality Not available.
Flu Activity Sporadic
METAR KAEJ 231355Z AUTO 28005KT 10SM CLR M01/M03 A3035 RMK AO2 T10131029

More Conditions Fewer Conditions

Pressure 30.35 in
Visibility 10.0 miles
Clouds Clear
Windchill 41 °F
Dew Point 25 °F
Humidity 52%
Rainfall 0.00 in
Snow Depth 0 in
UV 0 out of 12
Pollen 2.50 out of 12
Air Quality Not available.
Flu Activity Sporadic
METAR KAEJ 231355Z AUTO 28005KT 10SM CLR M01/M03 A3035 RMK AO2 T10131029

More Conditions Fewer Conditions

10-Day Weather Forecast

Almanac

Astronomy

Oct. 23, 2014 Rise Set
Actual Time 7:22 AM MDT 6:15 PM MDT
Civil Twilight 6:55 AM MDT 6:42 PM MDT
Nautical Twilight 6:23 AM MDT 7:13 PM MDT
Astronomical Twilight 5:53 AM MDT 7:44 PM MDT
Moon 7:04 AM MDT 6:18 PM MDT
Length of Visible Light 11h 47m
Length of Day
10h 52m
Tomorrow will be 2m 22s shorter.
Waning Crescent, 0% of the Moon is Illuminated
Today
Waning Crescent
Oct 23
New
Oct 30
First Quarter
Nov 6
Full
Nov 14
Last Quarter

Today's Extremes

State Highs State Lows

Community

WunderPhotos

Upload Photos

1,764,247 photos uploaded!

Nearby

Snow Depth

Station Depth Elevation
Rough And Tumble 0 in 10360 ft
Park Cone 0 in 9600 ft
Brumley 0 in 10600 ft
Porphyry Creek 0 in 10760 ft
Independence Pass 1 in 10600 ft

Earthquake Activity

City Distance Mag. Time & Date
Trinidad, Colorado 138 miles 2.7 10:33 PM MDT
2014-10-20
Minimum magnitude displayed is 2.5.

Coastal Water Temperatures

Place Temperature
No Stations Reporting

Nearby Weather Stations